^^
Station Historical Data
Daily Summary for June 5, 2017 Units:  English    Metric   Both
« Previous Day
Next Day »
Daily Weekly Monthly Yearly Custom
  High: Low: Average:
Temperature: 66.1 °F 55.5 °F 59.9 °F
Dew Point: 62.2 °F 54.2 °F 58.1 °F
Humidity: 97% 86% 94%
Wind Speed: 3.0mph 0.0mph 0.6mph
Wind Gust: 10.0mph - -
Wind- - WSW
Pressure: 29.85 in 29.74 in -
Precipitation: 0.02 in    
Historical Graphs
 
 
Tabular Data for June 5, 2017
Time Temperature Dew Point Pressure Wind Wind Speed Wind Gust Humidity Rainfall Rate (Hourly) Conditions
00:00 55.7 °F 54.2 °F 29.85 in Calm   3.0 mph 95% 0.05 in RA
00:15 55.7 °F 54.3 °F 29.85 in North 2.0 mph 5.0 mph 95% 0.01 in -RA
00:30 55.7 °F 54.3 °F 29.85 in Calm   5.0 mph 95% 0.00 in -RA
00:45 55.6 °F 54.5 °F 29.85 in Calm   4.0 mph 96% 0.00 in -RA
01:00 55.7 °F 54.6 °F 29.84 in Calm   1.0 mph 96% 0.00 in -RA
02:15 55.5 °F 54.4 °F 29.81 in Calm   2.0 mph 96% 0.00 in BKN
02:30 55.6 °F 54.5 °F 29.80 in Calm   1.0 mph 96% 0.00 in BKN
02:45 55.7 °F 54.6 °F 29.80 in Calm   2.0 mph 96% 0.00 in BKN
03:00 55.8 °F 55.0 °F 29.80 in Calm   2.0 mph 97% 0.00 in BKN
03:15 55.9 °F 54.8 °F 29.79 in Calm   3.0 mph 96% 0.00 in OVC
03:30 55.8 °F 54.7 °F 29.78 in Calm   2.0 mph 96% 0.00 in OVC
03:45 55.9 °F 55.1 °F 29.78 in Calm   1.0 mph 97% 0.00 in OVC
04:00 56.0 °F 55.2 °F 29.78 in Calm   1.0 mph 97% 0.00 in OVC
04:15 56.0 °F 55.2 °F 29.78 in Calm   1.0 mph 97% 0.00 in CLR
04:30 56.1 °F 55.3 °F 29.76 in NW 1.0 mph 2.0 mph 97% 0.00 in CLR
04:45 56.2 °F 55.4 °F 29.77 in Calm   1.0 mph 97% 0.01 in RA
05:00 56.1 °F 55.3 °F 29.77 in NW 1.0 mph 2.0 mph 97% 0.00 in
05:15 56.2 °F 55.4 °F 29.77 in NNW 2.0 mph 4.0 mph 97% 0.00 in
05:30 56.3 °F 55.5 °F 29.77 in Calm   3.0 mph 97% 0.00 in
05:45 56.3 °F 55.5 °F 29.77 in Calm   2.0 mph 97% 0.00 in CLR
06:00 56.4 °F 55.6 °F 29.77 in Calm   1.0 mph 97% 0.00 in CLR
06:15 56.5 °F 55.7 °F 29.76 in Calm   2.0 mph 97% 0.00 in -RA
06:30 56.6 °F 55.8 °F 29.76 in North 1.0 mph 3.0 mph 97% 0.00 in -RA
06:45 56.7 °F 55.9 °F 29.77 in Calm   2.0 mph 97% 0.00 in -RA
07:00 56.9 °F 56.1 °F 29.77 in Calm   1.0 mph 97% 0.00 in -RA
07:15 57.0 °F 56.2 °F 29.77 in Calm   1.0 mph 97% 0.00 in -RA
07:30 57.2 °F 56.4 °F 29.78 in Calm   2.0 mph 97% 0.00 in -RA
07:45 57.5 °F 56.7 °F 29.77 in NW 1.0 mph 2.0 mph 97% 0.00 in -RA
08:00 57.8 °F 57.0 °F 29.77 in Calm   3.0 mph 97% 0.00 in -RA
08:15 58.1 °F 57.3 °F 29.78 in Calm   2.0 mph 97% 0.00 in -RA
08:30 58.4 °F 57.6 °F 29.78 in Calm   2.0 mph 97% 0.00 in -RA
08:45 58.8 °F 58.0 °F 29.78 in North 1.0 mph 2.0 mph 97% 0.00 in -RA
09:00 59.3 °F 58.4 °F 29.78 in Calm   3.0 mph 97% 0.00 in -RA
09:15 59.3 °F 58.2 °F 29.79 in Calm   2.0 mph 96% 0.00 in CLR
09:30 59.7 °F 58.6 °F 29.79 in SSW 1.0 mph 2.0 mph 96% 0.00 in CLR
09:45 59.9 °F 58.8 °F 29.79 in Calm   2.0 mph 96% 0.00 in CLR
10:00 60.0 °F 58.9 °F 29.79 in Calm   3.0 mph 96% 0.00 in CLR
10:15 60.5 °F 59.3 °F 29.79 in Calm   3.0 mph 96% 0.00 in CLR
10:30 60.6 °F 59.2 °F 29.79 in Calm   2.0 mph 95% 0.00 in CLR
10:45 60.9 °F 59.5 °F 29.79 in Calm   3.0 mph 95% 0.00 in CLR
11:00 60.9 °F 59.5 °F 29.79 in West 1.0 mph 2.0 mph 95% 0.00 in CLR
11:15 61.3 °F 59.6 °F 29.79 in Calm   3.0 mph 94% 0.00 in CLR
11:30 61.9 °F 60.1 °F 29.79 in Calm   2.0 mph 94% 0.00 in CLR
11:45 62.1 °F 60.1 °F 29.79 in Calm   2.0 mph 93% 0.00 in CLR
12:00 62.3 °F 59.9 °F 29.79 in Calm   3.0 mph 92% 0.00 in CLR
12:15 62.6 °F 59.9 °F 29.79 in NW 1.0 mph 2.0 mph 91% 0.00 in CLR
12:30 62.5 °F 60.1 °F 29.78 in Calm   4.0 mph 92% 0.00 in CLR
12:45 63.0 °F 60.6 °F 29.78 in Calm   3.0 mph 92% 0.00 in CLR
13:00 64.1 °F 61.1 °F 29.77 in NNW 2.0 mph 7.0 mph 90% 0.00 in CLR
13:15 65.1 °F 62.1 °F 29.77 in NW 1.0 mph 5.0 mph 90% 0.00 in CLR
13:30 65.9 °F 61.6 °F 29.77 in SW 1.0 mph 4.0 mph 86% 0.00 in CLR
13:45 66.1 °F 61.8 °F 29.77 in WNW 2.0 mph 4.0 mph 86% 0.00 in CLR
14:00 66.1 °F 62.2 °F 29.77 in Calm   3.0 mph 87% 0.00 in CLR
14:15 65.8 °F 61.8 °F 29.76 in Calm   3.0 mph 87% 0.00 in OVC
14:30 65.7 °F 61.7 °F 29.77 in Calm   3.0 mph 87% 0.00 in OVC
14:45 65.3 °F 61.7 °F 29.77 in Calm   3.0 mph 88% 0.00 in OVC
15:00 65.0 °F 61.0 °F 29.76 in South 1.0 mph 4.0 mph 87% 0.00 in OVC
15:15 64.5 °F 60.9 °F 29.76 in WSW 1.0 mph 3.0 mph 88% 0.00 in OVC
15:30 64.5 °F 60.9 °F 29.75 in West 2.0 mph 4.0 mph 88% 0.00 in OVC
15:45 64.8 °F 61.2 °F 29.76 in NNE 1.0 mph 4.0 mph 88% 0.00 in OVC
16:00 63.9 °F 60.3 °F 29.76 in Calm   5.0 mph 88% 0.00 in OVC
16:15 63.9 °F 60.6 °F 29.76 in WNW 1.0 mph 3.0 mph 89% 0.00 in OVC
16:30 64.1 °F 60.8 °F 29.75 in Calm   4.0 mph 89% 0.00 in OVC
16:45 64.9 °F 61.3 °F 29.74 in West 1.0 mph 5.0 mph 88% 0.00 in OVC
17:00 65.0 °F 61.0 °F 29.75 in WNW 1.0 mph 7.0 mph 87% 0.00 in OVC
17:15 64.7 °F 60.8 °F 29.75 in Calm   7.0 mph 87% 0.00 in OVC
17:30 64.0 °F 60.1 °F 29.74 in NNE 1.0 mph 4.0 mph 87% 0.00 in OVC
17:45 63.6 °F 60.3 °F 29.74 in NW 1.0 mph 6.0 mph 89% 0.00 in OVC
18:00 63.1 °F 59.8 °F 29.74 in NW 3.0 mph 5.0 mph 89% 0.00 in OVC
18:15 62.8 °F 59.8 °F 29.74 in ENE 2.0 mph 6.0 mph 90% 0.00 in OVC
18:30 62.0 °F 59.3 °F 29.75 in East 2.0 mph 7.0 mph 91% 0.00 in OVC
18:45 61.3 °F 59.3 °F 29.75 in NNW 1.0 mph 10.0 mph 93% 0.00 in OVC
19:00 60.9 °F 59.2 °F 29.75 in NW 1.0 mph 8.0 mph 94% 0.00 in OVC
19:15 60.5 °F 59.1 °F 29.76 in WNW 1.0 mph 7.0 mph 95% 0.00 in CLR
19:30 60.3 °F 58.9 °F 29.75 in Calm   8.0 mph 95% 0.00 in CLR
19:45 60.1 °F 58.7 °F 29.76 in NNW 2.0 mph 9.0 mph 95% 0.00 in CLR
20:00 59.8 °F 58.4 °F 29.75 in NW 2.0 mph 9.0 mph 95% 0.00 in CLR
20:15 59.7 °F 58.3 °F 29.75 in North 2.0 mph 8.0 mph 95% 0.00 in CLR
20:30 59.6 °F 58.4 °F 29.75 in WNW 2.0 mph 4.0 mph 96% 0.00 in CLR
20:45 59.3 °F 58.2 °F 29.75 in ENE 1.0 mph 6.0 mph 96% 0.00 in CLR
21:00 59.2 °F 58.1 °F 29.74 in NW 1.0 mph 6.0 mph 96% 0.00 in CLR
21:15 59.1 °F 57.9 °F 29.74 in North 1.0 mph 9.0 mph 96% 0.00 in -DZ
21:30 59.0 °F 57.9 °F 29.74 in East 1.0 mph 5.0 mph 96% 0.00 in -DZ
21:45 58.9 °F 57.8 °F 29.74 in WNW 1.0 mph 6.0 mph 96% 0.00 in -DZ
22:00 58.9 °F 57.7 °F 29.75 in Calm   7.0 mph 96% 0.00 in -DZ
22:15 58.7 °F 57.6 °F 29.75 in South 1.0 mph 8.0 mph 96% 0.00 in -DZ
22:30 58.6 °F 57.5 °F 29.74 in West 1.0 mph 7.0 mph 96% 0.00 in -DZ
22:45 58.6 °F 57.5 °F 29.75 in West 1.0 mph 5.0 mph 96% 0.00 in -DZ
23:00 58.6 °F 57.4 °F 29.75 in SSE 1.0 mph 6.0 mph 96% 0.00 in -DZ
23:15 58.6 °F 57.5 °F 29.75 in NW 1.0 mph 4.0 mph 96% 0.00 in CLR
23:30 58.5 °F 57.3 °F 29.75 in Calm   7.0 mph 96% 0.00 in CLR
23:45 58.0 °F 56.9 °F 29.75 in North 1.0 mph 4.0 mph 96% 0.00 in CLR
TarryTown NY Weather
Compliments of Weather Underground - 1.5 mb